Airfield :
LOGIN :

Register | Disclaimer

   EN    FR    IT 

 










Legend :    VFR   Marginal VFR   IFR   Intensive IFR   Very Intensive IFR
Visi :
Ceiling :
>= 8 km
>= 3000ft
5 to 8 km
1000 to 3000 ft
1500m to 5 km
500 to 1000 ft
800 to 1500m
200 to 500 ft
< 800m
< 200 ft
Symbols :   Thunderstorms  Fog  Heavy snow  Heavy precipitations  Wind > 20 kt
SIGMETs :     Misc.  Thunderstorms  Icing  Turbulence  Mountain Waves  Volcanic Ashes






- Airport Elevation : 13 ft
- IATA code : SNR


LFRZ - St-Nazaire

CURRENT METAR :
  • 310330Z AUTO 15010KT 1000 0800 R25/1400U BCFG VV/// 12/12 Q1019 TEMPO 0500 FG

EXPIRED METARs :
  • 310300Z AUTO 15010KT 6000 FEW002 12/12 Q1019 TEMPO 0500 FG VV///
  • 310230Z AUTO 16007KT 9000 NSC 11/11 Q1020 TEMPO 0500 FG VV///
  • 310200Z AUTO 15005KT 8000 NSC 11/11 Q1020 TEMPO 0500 FG VV///
  • 310130Z AUTO 18003KT CAVOK 11/11 Q1021 TEMPO 0500 FG VV///
  • 310100Z AUTO 17003KT 150V230 9000 FEW034 11/10 Q1021 TEMPO 4500 BR

TAF AMD TAF LFRZ
Valid from the 31 at 00:00 until the 01 at 00:00 UTC


310017Z 3100/3124 14008KT 9999 SCT020
TEMPO 3100/3106 4500 BR NSC
PROB30
TEMPO 3103/3106 0500 FG VV///
BECMG 3106/3108 17015G25KT
TEMPO 3109/3114 19020G30KT -RA BKN014 OVC025
BECMG 3114/3116 25012KT
BECMG 3119/3121 RA
BECMG 3121/3123 19014KT



MET'MAP, your aeronautical weather chart ! - Copyright ORBIFLY December 2007 - Disclaimer

ORBIFLY MET'MAP TEAM :

Programming & Development : Alexandra Zaïnal
Concept & original design : Baudouin d'Aumeries
Assistance for programming : Marc-Olivier Méhu
Technical & hardware support : Manuel Goepfert

Contact : metmap@orbifly.com




SOURCES & CREDITS :

   NOAA